createdAt,value
2023-02-19T00:01:44.638Z,22.50
2023-02-19T00:04:15.549Z,26.57
2023-02-19T00:06:44.053Z,18.00
2023-02-19T00:09:12.644Z,24.08
2023-02-19T00:11:40.825Z,26.98
2023-02-19T00:14:09.420Z,21.63
2023-02-19T00:16:39.282Z,22.85
2023-02-19T00:19:09.837Z,28.77
2023-02-19T00:21:39.042Z,26.40
2023-02-19T00:24:08.958Z,19.57
2023-02-19T00:26:36.550Z,30.20
2023-02-19T00:29:04.473Z,26.97
2023-02-19T00:31:33.970Z,25.58
2023-02-19T00:34:04.158Z,23.07
2023-02-19T00:36:33.855Z,24.73
2023-02-19T00:39:03.407Z,20.23
2023-02-19T00:41:31.130Z,24.93
2023-02-19T00:44:00.345Z,18.50
2023-02-19T00:46:30.032Z,23.30
2023-02-19T00:48:58.528Z,17.00
2023-02-19T00:51:28.689Z,22.02
2023-02-19T00:53:56.386Z,25.23
2023-02-19T00:56:25.769Z,21.23
2023-02-19T00:58:54.149Z,30.10
2023-02-19T01:01:22.236Z,26.60
2023-02-19T01:03:50.364Z,24.27
2023-02-19T01:06:20.231Z,22.50
2023-02-19T01:08:48.562Z,27.10
2023-02-19T01:11:17.359Z,23.13
2023-02-19T01:16:15.637Z,31.33
2023-02-19T01:18:43.790Z,19.23
2023-02-19T01:21:15.826Z,23.27
2023-02-19T01:23:44.010Z,24.90
2023-02-19T01:26:16.301Z,31.23
2023-02-19T01:28:44.355Z,23.40
2023-02-19T01:31:16.181Z,21.80
2023-02-19T01:33:46.996Z,25.37
2023-02-19T01:36:15.409Z,27.03
2023-02-19T01:38:43.411Z,22.10
2023-02-19T01:41:13.644Z,27.05
2023-02-19T01:43:58.473Z,21.53
2023-02-19T01:46:28.832Z,24.60
2023-02-19T01:48:58.959Z,24.73
2023-02-19T01:51:27.745Z,20.67
2023-02-19T01:56:27.977Z,21.67
2023-02-19T01:58:55.740Z,21.37
2023-02-19T02:01:23.482Z,26.53
2023-02-19T02:03:53.421Z,23.20
2023-02-19T02:06:25.022Z,26.73
2023-02-19T02:09:12.851Z,28.70
2023-02-19T02:11:43.392Z,23.42
2023-02-19T02:14:11.195Z,23.67
2023-02-19T02:16:50.479Z,19.87
2023-02-19T02:19:44.688Z,20.83
2023-02-19T02:22:17.836Z,26.33
2023-02-19T02:25:09.993Z,20.67
2023-02-19T02:27:50.226Z,29.13
2023-02-19T02:30:27.006Z,16.27
2023-02-19T02:33:02.667Z,15.47
2023-02-19T02:35:35.620Z,22.57
2023-02-19T02:38:08.758Z,22.57
2023-02-19T02:40:36.558Z,15.33
2023-02-19T02:43:04.210Z,21.80
2023-02-19T02:45:37.252Z,19.23
2023-02-19T02:48:14.587Z,14.70
2023-02-19T02:50:47.282Z,9.10
2023-02-19T02:53:38.523Z,12.67
2023-02-19T02:56:06.601Z,11.20
2023-02-19T02:58:35.093Z,16.63
2023-02-19T03:01:26.717Z,12.27
2023-02-19T03:04:01.635Z,17.70
2023-02-19T03:06:32.330Z,18.10
2023-02-19T03:09:08.343Z,20.07
2023-02-19T03:11:57.852Z,18.80
2023-02-19T03:14:48.289Z,16.30
2023-02-19T03:17:39.187Z,19.53
2023-02-19T03:20:11.898Z,17.13
2023-02-19T03:22:41.446Z,17.30
2023-02-19T03:25:30.566Z,18.13
2023-02-19T03:28:01.394Z,17.13
2023-02-19T03:30:32.550Z,20.40
2023-02-19T03:33:08.223Z,17.67
2023-02-19T03:35:39.573Z,17.10
2023-02-19T03:38:12.484Z,12.53
2023-02-19T03:40:51.214Z,19.40
2023-02-19T03:45:56.632Z,15.30
2023-02-19T03:48:32.894Z,14.77
2023-02-19T03:51:10.316Z,18.17
2023-02-19T03:53:50.545Z,20.17
2023-02-19T03:56:23.446Z,18.13
2023-02-19T03:58:57.853Z,17.90
2023-02-19T04:01:31.179Z,12.37
2023-02-19T04:04:05.656Z,17.07
2023-02-19T04:06:34.905Z,19.73
2023-02-19T04:09:05.640Z,18.80
2023-02-19T04:11:34.012Z,18.70
2023-02-19T04:14:07.397Z,19.35
2023-02-19T04:16:38.134Z,16.73
2023-02-19T04:19:11.853Z,18.67
2023-02-19T04:21:41.660Z,18.00
2023-02-19T04:24:13.119Z,17.53
2023-02-19T04:26:41.771Z,23.23
2023-02-19T04:29:09.427Z,25.13
2023-02-19T04:31:37.918Z,16.83
2023-02-19T04:34:06.936Z,20.73
2023-02-19T04:36:35.036Z,18.50
2023-02-19T04:39:02.643Z,19.90
2023-02-19T04:41:30.258Z,19.40
2023-02-19T04:43:57.959Z,17.93
2023-02-19T04:46:25.694Z,16.47
2023-02-19T04:48:53.522Z,14.77
2023-02-19T04:51:22.558Z,17.70
2023-02-19T04:53:50.324Z,15.90
2023-02-19T04:56:19.046Z,23.67
2023-02-19T04:58:47.020Z,22.00
2023-02-19T05:01:15.434Z,20.45
2023-02-19T05:03:43.509Z,15.57
2023-02-19T05:06:13.588Z,21.17
2023-02-19T05:08:42.612Z,14.93
2023-02-19T05:11:12.072Z,20.73
2023-02-19T05:13:40.672Z,16.43
2023-02-19T05:16:13.229Z,17.65
2023-02-19T05:18:41.726Z,21.03
2023-02-19T05:21:10.567Z,18.60
2023-02-19T05:23:38.572Z,21.53
2023-02-19T05:26:09.408Z,20.93
2023-02-19T05:28:37.282Z,19.17
2023-02-19T05:31:06.745Z,21.67
2023-02-19T05:33:34.788Z,23.40
2023-02-19T05:36:06.957Z,20.02
2023-02-19T05:38:34.848Z,20.37
2023-02-19T05:41:12.443Z,14.25
2023-02-19T05:43:40.537Z,28.83
2023-02-19T05:46:09.314Z,23.45
2023-02-19T05:51:05.448Z,20.73
2023-02-19T05:53:33.494Z,16.42
2023-02-19T05:56:01.285Z,18.50
2023-02-19T05:58:30.454Z,14.33
2023-02-19T06:00:58.287Z,18.10
2023-02-19T06:03:25.935Z,15.13
2023-02-19T06:05:53.510Z,16.40
2023-02-19T06:08:21.154Z,17.27
2023-02-19T06:10:48.750Z,23.50
2023-02-19T06:13:17.855Z,16.23
2023-02-19T06:15:47.031Z,18.47
2023-02-19T06:18:14.695Z,21.97
2023-02-19T06:20:42.349Z,22.17
2023-02-19T06:23:09.984Z,20.27
2023-02-19T06:25:37.987Z,23.37
2023-02-19T06:28:06.001Z,23.20
2023-02-19T06:30:33.810Z,22.83
2023-02-19T06:33:02.760Z,21.43
2023-02-19T06:37:57.918Z,19.37
2023-02-19T06:40:25.635Z,23.93
2023-02-19T06:42:53.256Z,18.70
2023-02-19T06:45:20.828Z,20.13
2023-02-19T06:47:48.557Z,26.27
2023-02-19T06:50:17.673Z,26.73
2023-02-19T06:52:45.431Z,20.13
2023-02-19T06:55:13.097Z,26.80
2023-02-19T06:57:40.777Z,25.40
2023-02-19T07:00:10.056Z,24.67
2023-02-19T07:02:37.642Z,27.17
2023-02-19T07:05:05.806Z,21.20
2023-02-19T07:07:34.813Z,19.35
2023-02-19T07:10:02.776Z,21.47
2023-02-19T07:12:30.504Z,25.38
2023-02-19T07:14:58.095Z,27.63
2023-02-19T07:17:25.726Z,20.87
2023-02-19T07:19:53.324Z,27.13
2023-02-19T07:22:20.969Z,26.80
2023-02-19T07:24:49.925Z,27.87
2023-02-19T07:27:17.530Z,30.67
2023-02-19T07:29:45.234Z,31.00
2023-02-19T07:32:12.880Z,26.93
2023-02-19T07:34:40.562Z,29.90
2023-02-19T07:37:08.489Z,32.50
2023-02-19T07:39:36.140Z,33.03
2023-02-19T07:42:05.397Z,32.87
2023-02-19T07:44:33.348Z,32.53
2023-02-19T07:47:01.040Z,31.15
2023-02-19T07:49:28.703Z,31.97
2023-02-19T07:51:56.443Z,27.30
2023-02-19T07:54:24.090Z,30.43
2023-02-19T07:56:51.803Z,30.97
2023-02-19T07:59:21.639Z,32.50
2023-02-19T08:02:07.071Z,35.20
2023-02-19T08:04:35.713Z,33.60
2023-02-19T08:07:05.298Z,33.95
2023-02-19T08:09:33.126Z,27.10
2023-02-19T08:12:18.535Z,26.77
2023-02-19T08:14:47.515Z,26.90
2023-02-19T08:17:15.176Z,30.30
2023-02-19T08:19:43.080Z,24.40
2023-02-19T08:22:10.751Z,23.67
2023-02-19T08:24:42.831Z,29.67
2023-02-19T08:27:10.522Z,23.57
2023-02-19T08:29:38.154Z,28.73
2023-02-19T08:32:07.269Z,28.53
2023-02-19T08:34:35.023Z,28.03
2023-02-19T08:37:02.691Z,24.20
2023-02-19T08:39:30.373Z,31.20
2023-02-19T08:41:58.046Z,29.63
2023-02-19T08:44:25.727Z,29.67
2023-02-19T08:46:53.364Z,29.03
2023-02-19T08:49:22.379Z,29.73
2023-02-19T08:51:50.028Z,30.63
2023-02-19T08:54:17.715Z,23.90
2023-02-19T08:56:45.505Z,33.73
2023-02-19T08:59:13.165Z,23.27
2023-02-19T09:01:40.846Z,26.67
2023-02-19T09:04:12.861Z,31.40
2023-02-19T09:06:41.919Z,26.17
2023-02-19T09:09:09.775Z,27.40
2023-02-19T09:11:40.114Z,29.80
2023-02-19T09:14:08.412Z,32.70
2023-02-19T09:16:36.476Z,22.45
2023-02-19T09:19:04.619Z,21.55
2023-02-19T09:21:32.732Z,17.60
2023-02-19T09:24:01.861Z,23.05
2023-02-19T09:26:29.486Z,25.60
2023-02-19T09:28:57.356Z,21.43
2023-02-19T09:31:25.706Z,25.95
2023-02-19T09:33:53.637Z,20.20
2023-02-19T09:36:21.383Z,28.52
2023-02-19T09:38:49.071Z,23.23
2023-02-19T09:41:23.720Z,19.93
2023-02-19T09:43:51.643Z,13.93
2023-02-19T09:46:28.509Z,15.40
2023-02-19T09:49:03.387Z,18.60
2023-02-19T09:51:33.422Z,15.57
2023-02-19T09:54:02.416Z,16.60
2023-02-19T09:56:31.686Z,9.20
2023-02-19T09:59:01.127Z,5.93
2023-02-19T10:01:33.383Z,4.10
2023-02-19T10:04:01.500Z,4.17
2023-02-19T10:06:30.293Z,6.93
2023-02-19T10:11:31.138Z,6.50
2023-02-19T10:14:09.243Z,4.13
2023-02-19T10:16:41.877Z,5.13
2023-02-19T10:19:12.429Z,5.70
2023-02-19T10:21:40.918Z,6.37
2023-02-19T10:24:13.589Z,6.75
2023-02-19T10:26:42.657Z,6.27
2023-02-19T10:29:11.453Z,4.73
2023-02-19T10:34:18.975Z,6.27
2023-02-19T10:36:50.259Z,6.27
2023-02-19T10:39:42.170Z,3.53
2023-02-19T10:42:19.290Z,3.63
2023-02-19T10:44:50.876Z,3.63
2023-02-19T10:47:22.395Z,4.60
2023-02-19T10:49:52.189Z,3.83
2023-02-19T10:52:24.951Z,4.13
2023-02-19T10:54:54.401Z,4.20
2023-02-19T10:57:32.846Z,4.27
2023-02-19T11:00:03.353Z,5.05
2023-02-19T11:02:32.638Z,4.13
2023-02-19T11:05:19.818Z,4.13
2023-02-19T11:07:50.090Z,5.13
2023-02-19T11:10:26.534Z,6.53
2023-02-19T11:12:57.591Z,4.97
2023-02-19T11:15:29.801Z,6.77
2023-02-19T11:18:25.765Z,5.53
2023-02-19T11:20:56.152Z,4.47
2023-02-19T11:23:29.005Z,5.80
2023-02-19T11:26:00.080Z,4.67
2023-02-19T11:28:37.227Z,5.70
2023-02-19T11:31:21.140Z,5.07
2023-02-19T11:33:55.287Z,4.30
2023-02-19T11:36:30.080Z,5.30
2023-02-19T11:38:59.629Z,6.53
2023-02-19T11:41:56.380Z,6.03
2023-02-19T11:44:36.188Z,5.97
2023-02-19T11:47:29.977Z,4.70
2023-02-19T11:50:10.254Z,6.33
2023-02-19T11:52:43.132Z,6.17
2023-02-19T11:55:19.615Z,6.23
2023-02-19T11:57:49.662Z,7.67
2023-02-19T12:00:25.672Z,4.47
2023-02-19T12:03:23.932Z,5.30
2023-02-19T12:06:02.541Z,7.13
2023-02-19T12:09:17.788Z,5.57
2023-02-19T12:11:59.481Z,6.10
2023-02-19T12:14:54.951Z,12.77
2023-02-19T12:17:46.651Z,4.37
2023-02-19T12:20:24.884Z,4.77
2023-02-19T12:23:16.055Z,5.45
2023-02-19T12:25:56.669Z,7.57
2023-02-19T12:29:05.658Z,16.63
2023-02-19T12:32:02.120Z,6.80
2023-02-19T12:34:54.560Z,5.20
2023-02-19T12:37:38.602Z,4.63
2023-02-19T12:40:22.037Z,8.40
2023-02-19T12:43:01.117Z,5.37
2023-02-19T12:45:36.713Z,7.03
2023-02-19T12:48:13.402Z,4.93
2023-02-19T12:50:45.544Z,4.07
2023-02-19T12:53:31.781Z,4.90
2023-02-19T12:56:01.555Z,2.30
2023-02-19T12:58:36.464Z,3.70
2023-02-19T13:01:07.445Z,3.10
2023-02-19T13:03:40.359Z,4.00
2023-02-19T13:06:20.127Z,4.80
2023-02-19T13:09:06.284Z,2.70
2023-02-19T13:11:39.571Z,5.40
2023-02-19T13:14:16.980Z,2.83
2023-02-19T13:16:49.767Z,2.80
2023-02-19T13:19:17.577Z,2.60
2023-02-19T13:22:09.524Z,3.07
2023-02-19T13:24:41.754Z,3.43
2023-02-19T13:27:32.749Z,2.63
2023-02-19T13:30:16.550Z,4.47
2023-02-19T13:32:56.602Z,2.67
2023-02-19T13:35:43.224Z,2.90
2023-02-19T13:38:14.531Z,2.47
2023-02-19T13:40:43.962Z,3.17
2023-02-19T13:43:25.740Z,3.00
2023-02-19T13:45:58.245Z,2.27
2023-02-19T13:48:28.767Z,4.53
2023-02-19T13:51:33.794Z,13.43
2023-02-19T13:54:13.915Z,7.23
2023-02-19T13:56:41.900Z,1.77
2023-02-19T13:59:26.434Z,2.65
2023-02-19T14:02:30.546Z,2.93
2023-02-19T14:05:01.116Z,2.90
2023-02-19T14:07:54.999Z,1.07
2023-02-19T14:11:02.301Z,1.23
2023-02-19T14:14:11.002Z,1.47
2023-02-19T14:19:47.854Z,1.47
2023-02-19T14:22:52.600Z,1.50
2023-02-19T14:25:30.135Z,1.07
2023-02-19T14:28:02.764Z,2.60
2023-02-19T14:30:32.450Z,2.60
2023-02-19T14:33:10.646Z,2.10
2023-02-19T14:38:17.597Z,1.27
2023-02-19T14:40:48.376Z,0.73
2023-02-19T14:43:20.428Z,2.70
2023-02-19T14:45:51.411Z,1.27
2023-02-19T14:48:22.924Z,3.57
2023-02-19T14:50:57.636Z,1.27
2023-02-19T14:53:27.423Z,1.80
2023-02-19T14:55:56.552Z,2.03
2023-02-19T14:58:28.526Z,2.17
2023-02-19T15:03:32.420Z,2.30
2023-02-19T15:06:04.521Z,3.00
2023-02-19T15:08:37.266Z,1.33
2023-02-19T15:11:10.765Z,2.30
2023-02-19T15:13:45.454Z,3.40
2023-02-19T15:16:18.351Z,1.77
2023-02-19T15:18:49.471Z,1.20
2023-02-19T15:21:25.364Z,3.30
2023-02-19T15:23:56.004Z,2.50
2023-02-19T15:26:29.080Z,1.70
2023-02-19T15:29:01.031Z,2.87
2023-02-19T15:31:28.768Z,2.77
2023-02-19T15:33:57.870Z,2.23
2023-02-19T15:36:30.945Z,2.43
2023-02-19T15:39:01.693Z,5.03
2023-02-19T15:41:33.994Z,4.23
2023-02-19T15:44:24.319Z,4.60
2023-02-19T15:46:52.390Z,4.27
2023-02-19T15:49:30.942Z,5.88
2023-02-19T15:52:03.407Z,6.65
2023-02-19T15:54:35.041Z,5.10
2023-02-19T15:57:08.292Z,5.97
2023-02-19T15:59:41.488Z,3.50
2023-02-19T16:02:13.395Z,3.57
2023-02-19T16:04:45.060Z,4.87
2023-02-19T16:07:26.686Z,4.63
2023-02-19T16:10:21.625Z,7.60
2023-02-19T16:12:57.124Z,4.23
2023-02-19T16:15:25.222Z,7.70
2023-02-19T16:17:53.609Z,16.58
2023-02-19T16:20:25.722Z,9.20
2023-02-19T16:22:58.629Z,7.37
2023-02-19T16:25:30.848Z,6.17
2023-02-19T16:27:59.670Z,5.83
2023-02-19T16:33:48.814Z,17.53
2023-02-19T16:36:26.254Z,7.67
2023-02-19T16:39:24.652Z,16.30
2023-02-19T16:42:22.523Z,13.63
2023-02-19T16:44:50.120Z,7.60
2023-02-19T16:47:31.900Z,12.47
2023-02-19T16:50:02.575Z,6.40
2023-02-19T16:52:32.204Z,5.97
2023-02-19T16:54:59.883Z,4.73
2023-02-19T16:57:27.474Z,5.23
2023-02-19T16:59:55.124Z,4.70
2023-02-19T17:02:25.585Z,3.63
2023-02-19T17:04:55.228Z,4.33
2023-02-19T17:07:23.421Z,4.30
2023-02-19T17:09:52.477Z,5.97
2023-02-19T17:12:20.161Z,6.37
2023-02-19T17:14:47.813Z,13.33
2023-02-19T17:17:15.479Z,5.43
2023-02-19T17:19:43.075Z,5.40
2023-02-19T17:22:13.824Z,6.33
2023-02-19T17:24:41.641Z,4.57
2023-02-19T17:27:12.477Z,4.43
2023-02-19T17:29:40.105Z,3.43
2023-02-19T17:32:08.208Z,4.80
2023-02-19T17:34:36.245Z,9.40
2023-02-19T17:37:03.933Z,4.68
2023-02-19T17:39:31.605Z,10.87
2023-02-19T17:41:59.531Z,4.50
2023-02-19T17:44:28.487Z,3.78
2023-02-19T17:46:56.160Z,8.27
2023-02-19T17:49:24.025Z,3.97
2023-02-19T17:51:51.777Z,5.80
2023-02-19T17:54:19.542Z,6.27
2023-02-19T17:56:47.630Z,4.23
2023-02-19T17:59:17.420Z,3.75
2023-02-19T18:01:47.221Z,30.27
2023-02-19T18:04:14.890Z,5.87
2023-02-19T18:06:43.727Z,5.80
2023-02-19T18:11:45.662Z,5.47
2023-02-19T18:14:13.530Z,5.50
2023-02-19T18:16:49.822Z,17.67
2023-02-19T18:19:18.024Z,8.87
2023-02-19T18:21:45.684Z,21.40
2023-02-19T18:24:13.391Z,9.80
2023-02-19T18:26:41.504Z,6.73
2023-02-19T18:29:09.205Z,13.50
2023-02-19T18:31:37.983Z,4.83
2023-02-19T18:36:35.347Z,4.10
2023-02-19T18:39:03.347Z,6.70
2023-02-19T18:41:31.148Z,6.68
2023-02-19T18:43:59.757Z,6.20
2023-02-19T18:46:27.365Z,6.18
2023-02-19T18:48:55.011Z,9.90
2023-02-19T18:51:24.586Z,6.33
2023-02-19T18:53:52.266Z,12.17
2023-02-19T18:56:19.935Z,4.50
2023-02-19T18:58:50.045Z,5.47
2023-02-19T19:01:18.082Z,10.07
2023-02-19T19:03:45.715Z,13.77
2023-02-19T19:06:13.449Z,13.73
2023-02-19T19:08:42.431Z,7.50
2023-02-19T19:11:10.700Z,13.90
2023-02-19T19:13:38.537Z,9.73
2023-02-19T19:16:06.515Z,21.67
2023-02-19T19:18:38.083Z,16.90
2023-02-19T19:21:06.271Z,13.97
2023-02-19T19:23:33.956Z,11.18
2023-02-19T19:26:06.005Z,7.40
2023-02-19T19:28:33.698Z,13.17
2023-02-19T19:31:01.560Z,7.47
2023-02-19T19:33:30.524Z,9.75
2023-02-19T19:35:58.339Z,8.53
2023-02-19T19:38:25.984Z,12.40
2023-02-19T19:40:53.712Z,12.60
2023-02-19T19:43:22.750Z,12.03
2023-02-19T19:45:50.373Z,11.40
2023-02-19T19:48:18.186Z,9.73
2023-02-19T19:50:46.024Z,8.30
2023-02-19T19:53:13.818Z,6.57
2023-02-19T19:55:41.509Z,10.50
2023-02-19T19:58:09.332Z,18.47
2023-02-19T20:00:38.420Z,7.57
2023-02-19T20:03:06.939Z,10.17
2023-02-19T20:05:34.631Z,10.82
2023-02-19T20:08:02.294Z,10.27
2023-02-19T20:10:29.917Z,8.27
2023-02-19T20:12:57.587Z,9.03
2023-02-19T20:15:25.442Z,4.43
2023-02-19T20:17:54.474Z,4.57
2023-02-19T20:20:22.757Z,7.53
2023-02-19T20:22:51.694Z,8.55
2023-02-19T20:27:48.510Z,10.20
2023-02-19T20:30:17.838Z,13.83
2023-02-19T20:32:46.235Z,32.40
2023-02-19T20:35:17.453Z,14.02
2023-02-19T20:37:47.961Z,15.43
2023-02-19T20:40:18.644Z,22.83
2023-02-19T20:42:46.610Z,18.80
2023-02-19T20:45:16.613Z,12.50
2023-02-19T20:47:44.674Z,14.30
2023-02-19T20:50:13.614Z,41.55
2023-02-19T20:52:43.008Z,31.30
2023-02-19T20:55:11.473Z,24.27
2023-02-19T20:57:39.351Z,25.08
2023-02-19T21:00:09.158Z,18.30
2023-02-19T21:02:36.990Z,19.80
2023-02-19T21:05:05.166Z,14.03
2023-02-19T21:07:33.236Z,16.80
2023-02-19T21:10:02.319Z,13.52
2023-02-19T21:12:30.029Z,11.60
2023-02-19T21:14:57.899Z,11.53
2023-02-19T21:17:25.549Z,13.93
2023-02-19T21:19:53.358Z,15.83
2023-02-19T21:22:21.071Z,12.50
2023-02-19T21:24:52.047Z,13.23
2023-02-19T21:27:21.506Z,11.57
2023-02-19T21:29:49.276Z,12.73
2023-02-19T21:32:17.130Z,17.07
2023-02-19T21:34:44.933Z,18.05
2023-02-19T21:37:12.620Z,27.20
2023-02-19T21:39:40.251Z,29.70
2023-02-19T21:42:08.339Z,10.70
2023-02-19T21:44:37.812Z,11.55
2023-02-19T21:47:05.767Z,11.33
2023-02-19T21:49:33.546Z,11.30
2023-02-19T21:52:01.336Z,13.77
2023-02-19T21:54:29.117Z,14.63
2023-02-19T21:56:56.887Z,14.87
2023-02-19T21:59:24.845Z,15.27
2023-02-19T22:01:53.947Z,11.45
2023-02-19T22:04:24.500Z,10.17
2023-02-19T22:06:56.237Z,13.47
2023-02-19T22:09:24.165Z,13.53
2023-02-19T22:11:52.120Z,13.05
2023-02-19T22:14:19.763Z,13.50
2023-02-19T22:16:47.514Z,13.07
2023-02-19T22:19:17.241Z,13.20
2023-02-19T22:21:45.708Z,14.43
2023-02-19T22:24:17.523Z,12.38
2023-02-19T22:26:45.777Z,11.13
2023-02-19T22:29:15.472Z,14.90
2023-02-19T22:31:44.425Z,12.83
2023-02-19T22:34:13.848Z,8.70
2023-02-19T22:36:44.207Z,13.80
2023-02-19T22:39:19.750Z,12.53
2023-02-19T22:41:47.669Z,16.53
2023-02-19T22:44:16.052Z,10.82
2023-02-19T22:46:49.514Z,17.25
2023-02-19T22:49:18.112Z,17.17
2023-02-19T22:51:53.104Z,15.82
2023-02-19T22:54:24.993Z,13.67
2023-02-19T22:56:53.129Z,13.40
2023-02-19T22:59:22.064Z,17.33
2023-02-19T23:01:51.447Z,15.57
2023-02-19T23:04:20.791Z,15.37
2023-02-19T23:06:51.248Z,15.40
2023-02-19T23:09:23.034Z,16.27
2023-02-19T23:11:51.391Z,18.73
2023-02-19T23:14:22.247Z,14.55
2023-02-19T23:16:50.134Z,13.83
2023-02-19T23:19:18.394Z,17.50
2023-02-19T23:21:47.042Z,18.17
2023-02-19T23:24:17.332Z,13.30
2023-02-19T23:26:45.718Z,17.77
2023-02-19T23:29:16.544Z,15.88
2023-02-19T23:31:44.437Z,16.40
2023-02-19T23:34:12.537Z,18.77
2023-02-19T23:36:44.080Z,16.90
2023-02-19T23:39:15.006Z,16.63
2023-02-19T23:41:48.470Z,13.97
2023-02-19T23:44:16.431Z,16.07
2023-02-19T23:46:44.159Z,18.58
2023-02-19T23:49:11.918Z,15.10
2023-02-19T23:51:39.697Z,19.10
2023-02-19T23:54:07.878Z,20.33
2023-02-19T23:56:36.472Z,16.20
2023-02-19T23:59:05.701Z,17.38
